createdAt,value
2022-08-19T03:36:49.927Z,6.45
2022-08-19T03:39:53.162Z,6.37
2022-08-19T03:42:55.737Z,6.37
2022-08-19T03:46:05.522Z,5.57
2022-08-19T03:49:08.504Z,5.85
2022-08-19T03:52:11.425Z,6.50
2022-08-19T03:55:15.088Z,6.72
2022-08-19T03:58:18.033Z,5.65
2022-08-19T04:01:34.823Z,5.65
2022-08-19T04:04:40.704Z,5.87
2022-08-19T04:07:43.255Z,6.12
2022-08-19T04:13:49.434Z,6.15
2022-08-19T04:16:53.224Z,5.45
2022-08-19T04:19:56.193Z,5.78
2022-08-19T04:22:59.054Z,5.95
2022-08-19T04:26:01.631Z,5.85
2022-08-19T04:29:12.562Z,5.97
2022-08-19T04:32:16.298Z,5.75
2022-08-19T04:35:22.048Z,5.53
2022-08-19T04:38:27.560Z,5.45
2022-08-19T04:44:51.730Z,5.85
2022-08-19T04:48:27.163Z,5.53
2022-08-19T04:51:22.813Z,5.60
2022-08-19T04:54:37.476Z,5.40
2022-08-19T04:57:41.849Z,5.18
2022-08-19T05:00:44.970Z,5.95
2022-08-19T05:03:48.347Z,5.60
2022-08-19T05:06:52.580Z,5.20
2022-08-19T05:09:59.653Z,5.47
2022-08-19T05:13:02.490Z,5.55
2022-08-19T05:16:05.658Z,5.85
2022-08-19T05:19:27.328Z,5.47
2022-08-19T05:22:33.907Z,5.40
2022-08-19T05:25:41.088Z,5.75
2022-08-19T05:28:44.330Z,5.75
2022-08-19T05:31:50.354Z,5.35
2022-08-19T05:34:52.903Z,5.12
2022-08-19T05:37:58.932Z,5.65
2022-08-19T05:41:02.228Z,5.32
2022-08-19T05:44:10.258Z,5.87
2022-08-19T05:47:15.844Z,5.68
2022-08-19T05:50:18.965Z,5.85
2022-08-19T05:53:21.560Z,5.50
2022-08-19T05:56:24.997Z,4.93
2022-08-19T05:59:27.596Z,4.97
2022-08-19T06:02:31.828Z,5.05
2022-08-19T06:05:50.193Z,5.43
2022-08-19T06:08:54.908Z,4.90
2022-08-19T06:12:00.787Z,5.43
2022-08-19T06:15:07.625Z,5.40
2022-08-19T06:18:10.419Z,4.93
2022-08-19T06:24:18.197Z,4.80
2022-08-19T06:27:21.549Z,5.25
2022-08-19T06:30:24.412Z,4.90
2022-08-19T06:33:27.040Z,5.30
2022-08-19T06:36:43.783Z,4.65
2022-08-19T06:39:46.417Z,4.95
2022-08-19T06:42:54.306Z,5.25
2022-08-19T06:45:57.932Z,5.40
2022-08-19T06:49:02.114Z,4.55
2022-08-19T06:52:06.452Z,4.40
2022-08-19T06:55:09.419Z,4.90
2022-08-19T06:58:12.033Z,5.30
2022-08-19T07:01:14.952Z,4.95
2022-08-19T07:04:21.088Z,5.10
2022-08-19T07:07:23.947Z,4.53
2022-08-19T07:10:26.647Z,4.28
2022-08-19T07:13:29.416Z,4.90
2022-08-19T07:16:32.048Z,4.35
2022-08-19T07:19:36.724Z,4.55
2022-08-19T07:22:39.744Z,4.47
2022-08-19T07:25:44.275Z,5.90
2022-08-19T07:28:51.564Z,4.95
2022-08-19T07:31:57.440Z,4.85
2022-08-19T07:35:04.329Z,4.87
2022-08-19T07:38:07.296Z,5.00
2022-08-19T07:41:12.785Z,4.82
2022-08-19T07:44:16.780Z,4.70
2022-08-19T07:47:49.136Z,4.05
2022-08-19T07:50:42.463Z,4.20
2022-08-19T07:53:46.356Z,4.07
2022-08-19T07:56:51.071Z,3.97
2022-08-19T07:59:55.408Z,4.15
2022-08-19T08:02:58.207Z,3.95
2022-08-19T08:06:19.751Z,4.12
2022-08-19T08:09:29.619Z,3.95
2022-08-19T08:12:42.232Z,3.60
2022-08-19T08:18:50.541Z,4.25
2022-08-19T08:21:56.945Z,4.18
2022-08-19T08:25:04.204Z,5.25
2022-08-19T08:28:11.368Z,4.05
2022-08-19T08:31:21.105Z,3.72
2022-08-19T08:34:23.748Z,4.72
2022-08-19T08:37:26.552Z,3.33
2022-08-19T08:40:50.937Z,4.32
2022-08-19T08:43:56.378Z,4.12
2022-08-19T08:47:03.606Z,3.95
2022-08-19T08:50:13.375Z,4.20
2022-08-19T08:53:29.818Z,4.25
2022-08-19T08:56:35.414Z,3.53
2022-08-19T08:59:42.640Z,3.75
2022-08-19T09:02:50.387Z,3.65
2022-08-19T09:06:04.355Z,3.97
2022-08-19T09:09:25.769Z,3.78
2022-08-19T09:12:50.975Z,3.42
2022-08-19T09:16:02.455Z,3.50
2022-08-19T09:19:10.578Z,3.60
2022-08-19T09:22:13.360Z,3.87
2022-08-19T09:25:29.283Z,3.50
2022-08-19T09:28:32.465Z,3.62
2022-08-19T09:31:35.228Z,3.55
2022-08-19T09:34:44.032Z,3.58
2022-08-19T09:37:46.984Z,4.00
2022-08-19T09:40:51.152Z,3.75
2022-08-19T09:43:56.950Z,3.17
2022-08-19T09:47:01.256Z,3.97
2022-08-19T09:50:06.591Z,3.40
2022-08-19T09:53:09.387Z,3.87
2022-08-19T09:56:12.775Z,4.12
2022-08-19T09:59:15.663Z,3.33
2022-08-19T10:02:22.141Z,3.28
2022-08-19T10:05:43.920Z,3.15
2022-08-19T10:08:50.219Z,3.15
2022-08-19T10:11:54.908Z,3.55
2022-08-19T10:14:57.808Z,3.30
2022-08-19T10:18:00.838Z,3.58
2022-08-19T10:21:14.975Z,3.10
2022-08-19T10:24:18.572Z,3.58
2022-08-19T10:27:21.628Z,3.67
2022-08-19T10:30:24.960Z,3.40
2022-08-19T10:33:52.935Z,3.65
2022-08-19T10:36:56.682Z,3.40
2022-08-19T10:40:08.822Z,3.55
2022-08-19T10:43:12.213Z,2.97
2022-08-19T10:46:16.699Z,3.20
2022-08-19T10:49:20.262Z,2.45
2022-08-19T10:52:35.089Z,3.33
2022-08-19T10:56:00.360Z,3.05
2022-08-19T10:59:04.208Z,3.42
2022-08-19T11:02:13.911Z,3.37
2022-08-19T11:05:18.083Z,3.40
2022-08-19T11:08:23.018Z,3.22
2022-08-19T11:11:28.921Z,3.67
2022-08-19T11:14:34.191Z,3.20
2022-08-19T11:17:37.056Z,3.20
2022-08-19T11:20:40.486Z,2.70
2022-08-19T11:23:43.111Z,2.85
2022-08-19T11:26:46.004Z,3.00
2022-08-19T11:29:48.818Z,3.42
2022-08-19T11:32:51.752Z,3.67
2022-08-19T11:35:55.336Z,3.70
2022-08-19T11:38:58.257Z,3.70
2022-08-19T11:42:03.696Z,5.00
2022-08-19T11:45:07.064Z,4.10
2022-08-19T11:48:09.545Z,3.70
2022-08-19T11:51:15.975Z,3.53
2022-08-19T11:54:18.811Z,3.50
2022-08-19T11:57:21.738Z,3.50
2022-08-19T12:00:24.482Z,3.72
2022-08-19T12:03:28.599Z,3.80
2022-08-19T12:06:35.012Z,3.65
2022-08-19T12:09:42.726Z,3.03
2022-08-19T12:12:46.669Z,4.47
2022-08-19T12:15:57.726Z,4.70
2022-08-19T12:19:04.941Z,3.87
2022-08-19T12:22:08.639Z,4.20
2022-08-19T12:25:12.950Z,3.83
2022-08-19T12:28:16.503Z,3.78
2022-08-19T12:31:20.631Z,3.40
2022-08-19T12:34:23.440Z,6.43
2022-08-19T12:37:26.078Z,7.50
2022-08-19T12:40:29.048Z,6.30
2022-08-19T12:43:31.618Z,6.28
2022-08-19T12:46:34.544Z,4.93
2022-08-19T12:49:53.818Z,5.60
2022-08-19T12:56:01.871Z,5.93
2022-08-19T12:59:05.804Z,5.20
2022-08-19T13:02:09.200Z,6.12
2022-08-19T13:05:15.107Z,6.10
2022-08-19T13:08:18.173Z,6.03
2022-08-19T13:11:24.781Z,5.60
2022-08-19T13:14:27.377Z,5.80
2022-08-19T13:17:30.235Z,6.50
2022-08-19T13:20:33.092Z,7.10
2022-08-19T13:23:36.764Z,6.93
2022-08-19T13:26:39.231Z,6.25
2022-08-19T13:30:01.887Z,6.37
2022-08-19T13:33:17.312Z,6.55
2022-08-19T13:36:20.292Z,6.40
2022-08-19T13:39:24.123Z,6.18
2022-08-19T13:42:27.798Z,5.20
2022-08-19T13:45:35.012Z,5.37
2022-08-19T13:48:37.888Z,3.33
2022-08-19T13:51:41.136Z,3.10
2022-08-19T13:54:45.218Z,3.53
2022-08-19T13:57:52.225Z,2.97
2022-08-19T14:00:55.347Z,3.33
2022-08-19T14:03:58.391Z,3.28
2022-08-19T14:07:01.065Z,3.95
2022-08-19T14:10:07.062Z,3.10
2022-08-19T14:13:10.000Z,4.55
2022-08-19T14:16:14.664Z,3.40
2022-08-19T14:19:17.390Z,2.90
2022-08-19T14:22:22.373Z,2.65
2022-08-19T14:25:28.394Z,2.58
2022-08-19T14:28:31.406Z,2.80
2022-08-19T14:31:33.981Z,3.00
2022-08-19T14:34:38.298Z,3.05
2022-08-19T14:37:45.678Z,3.05
2022-08-19T14:40:49.921Z,2.15
2022-08-19T14:43:54.400Z,3.03
2022-08-19T14:46:57.245Z,2.17
2022-08-19T14:50:00.206Z,2.72
2022-08-19T14:53:12.307Z,2.40
2022-08-19T14:56:18.863Z,2.75
2022-08-19T14:59:21.763Z,2.15
2022-08-19T15:02:34.554Z,2.40
2022-08-19T15:05:38.474Z,2.78
2022-08-19T15:08:44.048Z,2.67
2022-08-19T15:11:47.237Z,1.80
